Time;durP1;ratioP1;P1;durP2;ratioP2;P2;SDS_P1;SDS_P2;PMS_P1;PMS_P2;Temp;Humidity;BMP_temperature;BMP_pressure;BME280_temperature;BME280_humidity;BME280_pressure;Samples;Min_cycle;Max_cycle;Signal;HPM_P1;HPM_P2
2023/07/27 00:02:04;;;;;;;5.65;2.55;;;;;;;-142.75;100.00;76013.25;5071457;28;20032;-66
2023/07/27 00:04:29;;;;;;;6.13;2.67;;;;;;;-142.75;100.00;75989.63;5071781;28;20032;-66
2023/07/27 00:06:55;;;;;;;8.27;2.53;;;;;;;-142.75;100.00;75985.69;5071488;28;20028;-66
2023/07/27 00:09:20;;;;;;;4.35;2.10;;;;;;;-142.75;100.00;75993.56;5071352;28;20056;-66
2023/07/27 00:11:45;;;;;;;5.60;2.25;;;;;;;-142.75;100.00;75973.88;5071046;28;20044;-67
2023/07/27 00:14:11;;;;;;;6.03;2.40;;;;;;;-142.75;100.00;75967.97;5071460;28;20043;-67
2023/07/27 00:16:36;;;;;;;6.55;2.10;;;;;;;-142.75;100.00;75981.75;5071419;28;20024;-66
2023/07/27 00:19:02;;;;;;;6.18;1.85;;;;;;;-142.75;100.00;76007.34;5071168;28;20454;-67
2023/07/27 00:21:27;;;;;;;2.97;1.50;;;;;;;-142.75;100.00;75979.78;5070997;28;20058;-67
2023/07/27 00:23:52;;;;;;;3.05;1.63;;;;;;;-142.75;100.00;75975.84;5071163;28;20447;-66
2023/07/27 00:26:18;;;;;;;2.67;1.50;;;;;;;-142.75;100.00;75954.22;5090157;28;20023;-66
2023/07/27 00:28:43;;;;;;;4.57;1.58;;;;;;;-142.75;100.00;75944.38;5091226;28;20035;-66
2023/07/27 00:31:09;;;;;;;4.90;1.50;;;;;;;-142.75;100.00;75971.91;5083493;28;20028;-66
2023/07/27 00:33:34;;;;;;;5.88;1.77;;;;;;;-142.75;100.00;75967.97;5071108;28;20028;-66
2023/07/27 00:36:00;;;;;;;4.53;2.22;;;;;;;-142.75;100.00;75983.72;5071137;28;20024;-67
2023/07/27 00:38:27;;;;;;;7.57;2.40;;;;;;;-142.75;100.00;75975.84;5071149;28;20031;-67
2023/07/27 00:40:52;;;;;;;6.53;2.72;;;;;;;-142.75;100.00;75975.84;5070901;28;20020;-66
2023/07/27 00:43:18;;;;;;;3.70;2.10;;;;;;;-142.75;100.00;75975.84;5070912;28;20467;-66
2023/07/27 00:45:43;;;;;;;6.25;2.72;;;;;;;-142.75;100.00;75967.97;5071473;28;20031;-66
2023/07/27 00:48:09;;;;;;;5.70;2.22;;;;;;;-142.75;100.00;75944.38;5070803;28;20376;-66
2023/07/27 00:50:35;;;;;;;5.03;2.20;;;;;;;-142.75;100.00;75932.56;5070241;28;20093;-66
2023/07/27 00:53:06;;;;;;;4.65;2.70;;;;;;;-142.75;100.00;75936.50;5070709;28;20587;-66
2023/07/27 00:55:32;;;;;;;4.18;1.80;;;;;;;-142.75;100.00;75930.59;5070529;28;20400;-66
2023/07/27 00:57:58;;;;;;;7.85;2.20;;;;;;;-142.75;100.00;75928.63;5070451;28;20043;-66
2023/07/27 01:00:25;;;;;;;5.40;2.42;;;;;;;-142.75;100.00;75916.81;5070237;28;20024;-66
2023/07/27 01:02:50;;;;;;;7.10;2.55;;;;;;;-142.75;100.00;75920.75;5070490;28;20047;-66
2023/07/27 01:05:16;;;;;;;4.85;2.10;;;;;;;-142.75;100.00;75930.59;5070516;28;20472;-67
2023/07/27 01:07:41;;;;;;;4.85;2.42;;;;;;;-142.75;100.00;75924.69;5070384;28;20169;-66
2023/07/27 01:10:07;;;;;;;3.75;1.83;;;;;;;-142.75;100.00;75908.94;5070071;28;20029;-67
2023/07/27 01:12:48;;;;;;;6.03;2.80;;;;;;;-142.75;100.00;75881.38;5069190;28;20035;-66
2023/07/27 01:15:15;;;;;;;3.65;2.22;;;;;;;-142.75;100.00;75879.41;5070462;28;20411;-66
2023/07/27 01:17:52;;;;;;;4.50;2.95;;;;;;;-142.75;100.00;75849.91;5069074;28;20020;-66
2023/07/27 01:20:42;;;;;;;7.72;3.20;;;;;;;-142.75;100.00;75853.84;5069913;28;20475;-66
2023/07/27 01:23:31;;;;;;;4.60;2.38;;;;;;;-142.75;100.00;75861.69;5070015;28;20033;-66
2023/07/27 01:26:23;;;;;;;7.82;2.40;;;;;;;-142.75;100.00;75845.97;5070091;28;20039;-65
2023/07/27 01:29:08;;;;;;;3.78;2.38;;;;;;;-142.75;100.00;75853.84;5068503;28;20059;-65
2023/07/27 01:31:41;;;;;;;6.80;3.28;;;;;;;-142.75;100.00;75869.56;5069702;28;20055;-66
2023/07/27 01:34:32;;;;;;;5.25;3.17;;;;;;;-142.75;100.00;75842.03;5069876;28;20094;-65
2023/07/27 01:37:08;;;;;;;5.38;3.10;;;;;;;-142.75;100.00;75842.03;5069590;28;20106;-65
2023/07/27 01:39:38;;;;;;;6.00;2.90;;;;;;;-142.75;100.00;75822.34;5070144;28;20028;-65
2023/07/27 01:42:04;;;;;;;7.22;2.90;;;;;;;-142.75;100.00;75826.28;5068916;28;20032;-65
2023/07/27 01:44:32;;;;;;;5.25;3.08;;;;;;;-142.75;100.00;75830.22;5069722;28;20411;-65
2023/07/27 01:46:59;;;;;;;7.97;3.10;;;;;;;-142.75;100.00;75816.44;5069806;28;20035;-65
2023/07/27 01:49:27;;;;;;;5.90;2.92;;;;;;;-142.75;100.00;75808.56;5069625;28;20146;-65
2023/07/27 01:51:54;;;;;;;6.07;2.67;;;;;;;-142.75;100.00;75808.56;5069177;28;20608;-65
2023/07/27 01:54:20;;;;;;;6.80;2.80;;;;;;;-142.75;100.00;75802.66;5089042;28;20552;-65
2023/07/27 01:56:46;;;;;;;5.20;3.15;;;;;;;-142.75;100.00;75798.72;5089718;28;20020;-66
2023/07/27 01:59:12;;;;;;;6.50;3.30;;;;;;;-142.75;100.00;75800.69;5089719;28;20430;-65
2023/07/27 02:01:38;;;;;;;7.57;3.13;;;;;;;-142.75;100.00;75794.78;5080078;28;20107;-65
2023/07/27 02:04:05;;;;;;;8.60;3.25;;;;;;;-142.75;100.00;75781.00;5069286;28;20016;-65
2023/07/27 02:06:30;;;;;;;5.82;2.83;;;;;;;-142.75;100.00;75779.03;5069099;28;20036;-65
2023/07/27 02:08:56;;;;;;;6.88;3.30;;;;;;;-142.75;100.00;75769.19;5069050;28;20082;-65
2023/07/27 02:11:23;;;;;;;5.70;3.17;;;;;;;-142.75;100.00;75757.41;5068948;28;20048;-65
2023/07/27 02:13:59;;;;;;;7.55;3.30;;;;;;;-142.75;100.00;75741.66;5069113;28;20058;-65
2023/07/27 02:16:46;;;;;;;6.78;3.50;;;;;;;-142.75;100.00;75735.75;5069136;28;20032;-64
2023/07/27 02:19:15;;;;;;;6.05;3.72;;;;;;;-142.75;100.00;75747.56;5069134;28;20427;-64
2023/07/27 02:21:43;;;;;;;9.45;4.78;;;;;;;-142.75;100.00;75725.91;5068888;28;20488;-64
2023/07/27 02:24:09;;;;;;;10.05;6.05;;;;;;;-142.75;100.00;75721.97;5069182;28;20032;-65
2023/07/27 02:26:35;;;;;;;11.43;6.30;;;;;;;-142.75;100.00;75727.88;5068901;28;20100;-64
2023/07/27 02:29:00;;;;;;;12.68;6.20;;;;;;;-142.75;100.00;75723.94;5068877;28;20488;-64
2023/07/27 02:31:25;;;;;;;10.13;5.72;;;;;;;-142.75;100.00;75712.13;5068385;28;20070;-63
2023/07/27 02:33:51;;;;;;;9.93;5.40;;;;;;;-142.75;100.00;75698.34;5068760;28;20020;-64
2023/07/27 02:36:16;;;;;;;11.43;5.40;;;;;;;-142.75;100.00;75696.38;5068848;28;20107;-64
2023/07/27 02:38:42;;;;;;;10.68;5.47;;;;;;;-142.75;100.00;75708.19;5068710;28;20033;-63
2023/07/27 02:41:11;;;;;;;12.25;5.25;;;;;;;-142.75;100.00;75692.44;5068237;28;20411;-63
2023/07/27 02:43:38;;;;;;;10.45;5.75;;;;;;;-142.75;100.00;75670.81;5068558;28;20043;-63
2023/07/27 02:46:04;;;;;;;11.77;6.40;;;;;;;-142.75;100.00;75657.03;5068475;28;20020;-63
2023/07/27 02:48:29;;;;;;;13.73;6.38;;;;;;;-142.75;100.00;75659.00;5068586;28;20114;-64
2023/07/27 02:50:55;;;;;;;15.13;6.88;;;;;;;-142.75;100.00;75664.91;5068068;28;20100;-63
2023/07/27 02:53:20;;;;;;;10.25;6.45;;;;;;;-142.75;100.00;75668.84;5067811;28;20404;-63
2023/07/27 02:55:56;;;;;;;14.05;6.45;;;;;;;-142.75;100.00;75657.03;5068577;28;20419;-63
2023/07/27 02:58:21;;;;;;;14.63;8.48;;;;;;;-142.75;100.00;75670.81;5068552;28;20573;-63
2023/07/27 03:00:55;;;;;;;14.80;8.63;;;;;;;-142.75;100.00;75664.91;5066810;28;20062;-63
2023/07/27 03:03:21;;;;;;;16.23;6.72;;;;;;;-142.75;100.00;75664.91;5068209;28;20032;-64
2023/07/27 03:05:46;;;;;;;13.50;7.88;;;;;;;-142.75;100.00;75647.19;5068441;28;20024;-64
2023/07/27 03:08:12;;;;;;;11.80;6.65;;;;;;;-142.75;100.00;75659.00;5068466;28;20514;-64
2023/07/27 03:10:38;;;;;;;12.32;6.72;;;;;;;-142.75;100.00;75657.03;5068195;28;20024;-65
2023/07/27 03:13:03;;;;;;;12.27;6.72;;;;;;;-142.75;100.00;75633.41;5066864;28;20622;-64
2023/07/27 03:15:28;;;;;;;11.18;6.82;;;;;;;-142.75;100.00;75637.34;5068262;28;20112;-64
2023/07/27 03:17:54;;;;;;;13.50;6.72;;;;;;;-142.75;100.00;75641.28;5068293;28;20025;-64
2023/07/27 03:20:19;;;;;;;12.95;5.82;;;;;;;-142.75;100.00;75668.84;5067903;28;20020;-64
2023/07/27 03:22:44;;;;;;;13.93;7.10;;;;;;;-142.75;100.00;75662.94;5068148;28;20515;-65
2023/07/27 03:25:10;;;;;;;12.25;6.15;;;;;;;-142.75;100.00;75641.28;5068267;28;20022;-64
2023/07/27 03:27:35;;;;;;;12.13;6.03;;;;;;;-142.75;100.00;75637.34;5068119;28;20509;-64
2023/07/27 03:30:00;;;;;;;14.07;6.20;;;;;;;-142.75;100.00;75629.47;5068227;28;21686;-64
2023/07/27 03:32:26;;;;;;;11.15;7.30;;;;;;;-142.75;100.00;75621.59;5067990;28;20458;-64
2023/07/27 03:34:51;;;;;;;11.85;6.55;;;;;;;-142.75;100.00;75617.66;5067071;28;20024;-64
2023/07/27 03:37:16;;;;;;;11.65;6.72;;;;;;;-142.75;100.00;75607.81;5068182;28;20024;-63
2023/07/27 03:39:42;;;;;;;11.13;6.38;;;;;;;-142.75;100.00;75605.84;5068121;28;20025;-64
2023/07/27 03:42:07;;;;;;;12.70;6.97;;;;;;;-142.75;100.00;75601.91;5067522;28;20029;-64
2023/07/27 03:44:32;;;;;;;12.40;7.15;;;;;;;-142.75;100.00;75596.00;5068073;28;20082;-64
2023/07/27 03:46:57;;;;;;;9.88;6.50;;;;;;;-142.75;100.00;75590.13;5068025;28;20548;-64
2023/07/27 03:49:23;;;;;;;10.60;6.55;;;;;;;-142.75;100.00;75572.41;5067824;28;20021;-64
2023/07/27 03:51:48;;;;;;;12.75;6.68;;;;;;;-142.75;100.00;75562.56;5067469;28;20024;-64
2023/07/27 03:54:13;;;;;;;14.20;7.47;;;;;;;-142.75;100.00;75562.56;5067968;28;20077;-64
2023/07/27 03:56:39;;;;;;;11.40;6.43;;;;;;;-142.75;100.00;75564.53;5068049;28;20052;-63
2023/07/27 03:59:04;;;;;;;12.50;6.78;;;;;;;-142.75;100.00;75554.69;5067769;28;20488;-63
2023/07/27 04:01:29;;;;;;;13.65;6.10;;;;;;;-142.75;100.00;75548.78;5067641;28;20036;-63
2023/07/27 04:03:55;;;;;;;12.18;7.18;;;;;;;-142.75;100.00;75542.88;5067806;28;20395;-64
2023/07/27 04:06:20;;;;;;;12.02;6.90;;;;;;;-142.75;100.00;75546.81;5071303;28;20472;-64
2023/07/27 04:08:45;;;;;;;10.70;6.60;;;;;;;-142.75;100.00;75542.88;5071688;28;20650;-64
2023/07/27 04:11:11;;;;;;;10.90;6.38;;;;;;;-142.75;100.00;75536.97;5071287;28;20017;-63
2023/07/27 04:13:37;;;;;;;14.50;6.88;;;;;;;-142.75;100.00;75529.09;5071431;28;20489;-64
2023/07/27 04:16:04;;;;;;;13.98;7.20;;;;;;;-142.75;100.00;75515.31;5071433;28;20404;-64
2023/07/27 04:18:29;;;;;;;9.68;6.60;;;;;;;-142.75;100.00;75519.25;5072493;28;20522;-63
2023/07/27 04:20:55;;;;;;;10.57;6.13;;;;;;;-142.75;100.00;75519.25;5090885;28;20012;-63
2023/07/27 04:23:20;;;;;;;8.95;6.13;;;;;;;-142.75;100.00;75521.22;5091407;28;20023;-65
2023/07/27 04:25:45;;;;;;;10.23;6.45;;;;;;;-142.75;100.00;75501.56;5091527;28;20032;-63
2023/07/27 04:28:11;;;;;;;10.30;6.05;;;;;;;-142.75;100.00;75499.59;5091454;28;20055;-64
2023/07/27 04:30:36;;;;;;;9.10;5.45;;;;;;;-142.75;100.00;75505.50;5090938;28;20487;-64
2023/07/27 04:33:02;;;;;;;11.88;6.75;;;;;;;-142.75;100.00;75491.72;5091254;28;20085;-64
2023/07/27 04:35:27;;;;;;;9.18;6.25;;;;;;;-142.75;100.00;75495.66;5091792;28;20055;-63
2023/07/27 04:37:52;;;;;;;11.00;6.40;;;;;;;-142.75;100.00;75470.06;5091193;28;20020;-63
2023/07/27 04:40:19;;;;;;;11.57;6.47;;;;;;;-142.75;100.00;75472.03;5091057;28;20560;-64
2023/07/27 04:42:44;;;;;;;10.20;6.07;;;;;;;-142.75;100.00;75472.03;5091079;28;20104;-64
2023/07/27 04:45:10;;;;;;;10.88;6.32;;;;;;;-142.75;100.00;75464.16;5091424;28;20103;-63
2023/07/27 04:47:35;;;;;;;8.65;5.55;;;;;;;-142.75;100.00;75448.41;5090979;28;20059;-63
2023/07/27 04:50:01;;;;;;;7.80;5.70;;;;;;;-142.75;100.00;75442.50;5083295;28;20027;-64
2023/07/27 04:52:27;;;;;;;10.20;5.85;;;;;;;-142.75;100.00;75456.28;5070492;28;20028;-63
2023/07/27 04:54:53;;;;;;;9.48;5.43;;;;;;;-142.75;100.00;75438.56;5070652;28;20024;-63
2023/07/27 04:57:18;;;;;;;7.78;4.97;;;;;;;-142.75;100.00;75428.75;5070558;28;20032;-63
2023/07/27 04:59:43;;;;;;;8.85;5.40;;;;;;;-142.75;100.00;75428.75;5070520;28;20027;-63
2023/07/27 05:02:09;;;;;;;7.10;4.03;;;;;;;-142.75;100.00;75407.09;5070183;28;20542;-64
2023/07/27 05:04:34;;;;;;;11.20;4.47;;;;;;;-142.75;100.00;75407.09;5070515;28;20027;-63
2023/07/27 05:07:00;;;;;;;7.43;4.75;;;;;;;-142.75;100.00;75393.31;5070489;28;20070;-63
2023/07/27 05:09:25;;;;;;;7.30;4.43;;;;;;;-142.75;100.00;75413.00;5070202;28;20028;-63
2023/07/27 05:11:50;;;;;;;6.05;4.18;;;;;;;-142.75;100.00;75401.19;5077810;28;20024;-64
2023/07/27 05:14:16;;;;;;;7.95;4.53;;;;;;;-142.75;100.00;75413.00;5090539;28;20093;-62
2023/07/27 05:16:41;;;;;;;4.90;3.47;;;;;;;-142.75;100.00;75393.31;5089757;28;20056;-63
2023/07/27 05:19:06;;;;;;;6.68;4.03;;;;;;;-142.75;100.00;75371.66;5090662;28;20020;-63
2023/07/27 05:21:31;;;;;;;8.50;4.55;;;;;;;-142.75;100.00;75357.91;5079982;28;20025;-63
2023/07/27 05:23:57;;;;;;;4.63;3.30;;;;;;;-142.75;100.00;75365.75;5070177;28;20028;-64
2023/07/27 05:26:22;;;;;;;9.52;3.45;;;;;;;-142.75;100.00;75346.09;5069992;28;20028;-63
2023/07/27 05:28:47;;;;;;;5.47;3.92;;;;;;;-142.75;100.00;75338.22;5070009;28;20483;-63
2023/07/27 05:31:13;;;;;;;5.60;3.78;;;;;;;-142.75;100.00;75334.28;5069736;28;20024;-63
2023/07/27 05:33:38;;;;;;;5.05;3.63;;;;;;;-142.75;100.00;75332.31;5069892;28;20025;-63
2023/07/27 05:36:04;;;;;;;5.88;4.32;;;;;;;-142.75;100.00;75316.56;5069979;28;20032;-63
2023/07/27 05:38:29;;;;;;;7.00;4.80;;;;;;;-142.75;100.00;75318.53;5069698;28;20103;-63
2023/07/27 05:41:01;;;;;;;6.65;4.63;;;;;;;-142.75;100.00;75291.00;5072037;28;20016;-64
2023/07/27 05:43:27;;;;;;;7.47;4.53;;;;;;;-142.75;100.00;75285.09;5076040;28;20024;-63
2023/07/27 05:45:52;;;;;;;6.43;4.45;;;;;;;-142.75;100.00;75287.06;5081349;28;20028;-63
2023/07/27 05:48:17;;;;;;;9.27;5.28;;;;;;;-142.75;100.00;75269.34;5082095;28;20028;-63
2023/07/27 05:50:43;;;;;;;6.13;5.10;;;;;;;-142.75;100.00;75275.25;5083861;28;20035;-63
2023/07/27 05:53:08;;;;;;;8.82;5.18;;;;;;;-142.75;100.00;75263.44;5084085;28;20031;-63
2023/07/27 05:55:34;;;;;;;6.70;5.03;;;;;;;-142.75;100.00;75249.66;5082092;28;20119;-63
2023/07/27 05:57:59;;;;;;;6.50;4.78;;;;;;;-142.75;100.00;75231.94;5083163;28;20123;-64
2023/07/27 06:00:25;;;;;;;6.93;4.60;;;;;;;-142.75;100.00;75210.31;5077969;28;20044;-63
2023/07/27 06:02:50;;;;;;;5.63;4.35;;;;;;;-142.75;100.00;75216.22;5081382;28;20035;-63
2023/07/27 06:05:15;;;;;;;5.97;4.00;;;;;;;-142.75;100.00;75196.53;5079748;28;20025;-64
2023/07/27 06:07:42;;;;;;;5.30;4.07;;;;;;;-142.75;100.00;75176.84;5084403;28;20073;-63
2023/07/27 06:10:08;;;;;;;5.43;3.28;;;;;;;-142.75;100.00;75165.03;5079155;28;20146;-63
2023/07/27 06:12:33;;;;;;;5.70;3.35;;;;;;;-142.75;100.00;75151.28;5080545;28;20020;-64
2023/07/27 06:14:59;;;;;;;4.40;2.67;;;;;;;-142.75;100.00;75151.28;5078232;28;20020;-64
2023/07/27 06:17:25;;;;;;;5.45;2.00;;;;;;;-142.75;100.00;75139.47;5081689;28;20032;-64
2023/07/27 06:19:50;;;;;;;3.38;2.00;;;;;;;-142.75;100.00;75135.53;5081849;28;20016;-65
2023/07/27 06:22:16;;;;;;;2.33;1.48;;;;;;;-142.75;100.00;75141.44;5080736;28;20153;-64
2023/07/27 06:24:41;;;;;;;2.03;1.30;;;;;;;-142.75;100.00;75151.28;5075705;28;20055;-64
2023/07/27 06:27:06;;;;;;;3.53;1.60;;;;;;;-142.75;100.00;75153.25;5082812;28;20020;-65
2023/07/27 06:29:32;;;;;;;3.70;1.33;;;;;;;-142.75;100.00;75137.50;5082888;28;20498;-64
2023/07/27 06:31:57;;;;;;;2.28;1.20;;;;;;;-142.75;100.00;75121.75;5079493;28;20029;-64
2023/07/27 06:34:22;;;;;;;4.70;1.48;;;;;;;-142.75;100.00;75109.94;5084610;28;20051;-64
2023/07/27 06:36:48;;;;;;;3.67;1.48;;;;;;;-142.75;100.00;75098.16;5085831;28;20020;-64
2023/07/27 06:39:13;;;;;;;4.75;1.85;;;;;;;-142.75;100.00;75086.34;5082928;28;20431;-64
2023/07/27 06:41:38;;;;;;;7.05;1.88;;;;;;;-142.75;100.00;75082.41;5082302;28;20059;-64
2023/07/27 06:44:04;;;;;;;6.15;2.25;;;;;;;-142.75;100.00;75068.63;5081840;28;20293;-64
2023/07/27 06:46:30;;;;;;;6.20;2.03;;;;;;;-142.75;100.00;75070.59;5081135;28;20028;-64
2023/07/27 06:48:55;;;;;;;3.72;1.90;;;;;;;-142.75;100.00;75068.63;5078273;28;20029;-64
2023/07/27 06:51:22;;;;;;;4.88;1.90;;;;;;;-142.75;100.00;75068.63;5080885;28;20030;-64
2023/07/27 06:53:48;;;;;;;4.20;1.80;;;;;;;-142.75;100.00;75068.63;5086219;28;20315;-64
2023/07/27 06:56:13;;;;;;;5.72;1.80;;;;;;;-142.75;100.00;75078.47;5070080;28;20046;-64
2023/07/27 06:58:39;;;;;;;5.63;2.00;;;;;;;-142.75;100.00;75082.41;5068403;28;20107;-64
2023/07/27 07:01:04;;;;;;;5.38;1.85;;;;;;;-142.75;100.00;75066.66;5067090;28;20335;-64
2023/07/27 07:03:29;;;;;;;3.70;1.50;;;;;;;-142.75;100.00;75066.66;5070849;28;20605;-64
2023/07/27 07:05:55;;;;;;;4.38;1.52;;;;;;;-142.75;100.00;75033.22;5068808;28;20013;-64
2023/07/27 07:08:20;;;;;;;3.30;1.85;;;;;;;-142.75;100.00;75039.13;5068661;28;20027;-63
2023/07/27 07:10:46;;;;;;;5.05;1.45;;;;;;;-142.75;100.00;75027.31;5071074;28;20104;-63
2023/07/27 07:13:12;;;;;;;3.75;1.25;;;;;;;-142.75;100.00;75031.25;5080206;28;20046;-64
2023/07/27 07:15:37;;;;;;;3.35;0.93;;;;;;;-142.75;100.00;75039.13;5084403;28;20149;-64
2023/07/27 07:18:02;;;;;;;3.42;0.98;;;;;;;-142.75;100.00;75031.25;5080558;28;20462;-64
2023/07/27 07:20:28;;;;;;;5.05;1.00;;;;;;;-142.75;100.00;75019.44;5087052;28;20073;-64
2023/07/27 07:22:54;;;;;;;2.95;0.70;;;;;;;-142.75;100.00;75033.22;5082355;28;20025;-63
2023/07/27 07:25:19;;;;;;;1.60;0.50;;;;;;;-142.75;100.00;75035.19;5072665;28;20103;-65
2023/07/27 07:27:44;;;;;;;1.23;0.60;;;;;;;-142.75;100.00;75005.66;5071725;28;20039;-63
2023/07/27 07:30:11;;;;;;;3.92;0.75;;;;;;;-142.75;100.00;75013.53;5070871;28;20567;-63
2023/07/27 07:32:37;;;;;;;4.53;0.63;;;;;;;-142.75;100.00;75011.56;5072260;28;20039;-66
2023/07/27 07:35:02;;;;;;;1.70;0.70;;;;;;;-142.75;100.00;75007.63;5067769;28;20519;-63
2023/07/27 07:37:27;;;;;;;4.05;0.52;;;;;;;-142.75;100.00;74999.75;5084045;28;20055;-63
2023/07/27 07:39:53;;;;;;;1.40;0.52;;;;;;;-142.75;100.00;74997.78;5079886;28;20387;-62
2023/07/27 07:42:18;;;;;;;3.35;0.80;;;;;;;-142.75;100.00;74978.13;5089437;28;20108;-63
2023/07/27 07:44:43;;;;;;;1.67;0.70;;;;;;;-142.75;100.00;74974.19;5092486;28;20024;-64
2023/07/27 07:47:09;;;;;;;3.03;0.40;;;;;;;-142.75;100.00;74984.00;5092366;28;20024;-63
2023/07/27 07:49:34;;;;;;;2.78;0.70;;;;;;;-142.75;100.00;74993.84;5091693;28;20132;-64
2023/07/27 07:51:59;;;;;;;1.95;0.65;;;;;;;-142.75;100.00;74968.28;5081845;28;20098;-64
2023/07/27 07:54:28;;;;;;;2.10;0.70;;;;;;;-142.75;100.00;74956.47;5071100;28;20021;-64
2023/07/27 07:56:54;;;;;;;3.38;0.75;;;;;;;-142.75;100.00;74956.47;5079438;28;20557;-64
2023/07/27 07:59:20;;;;;;;2.15;0.68;;;;;;;-142.75;100.00;74972.22;5080166;28;20074;-64
2023/07/27 08:01:45;;;;;;;1.77;0.57;;;;;;;-142.75;100.00;74968.28;5073278;28;20027;-63
2023/07/27 08:04:11;;;;;;;2.10;0.57;;;;;;;-142.75;100.00;74966.31;5073680;28;20484;-63
2023/07/27 08:06:36;;;;;;;1.63;0.70;;;;;;;-142.75;100.00;74958.44;5076049;28;20043;-63
2023/07/27 08:09:01;;;;;;;4.78;0.70;;;;;;;-142.75;100.00;74948.59;5076645;28;20116;-64
2023/07/27 08:11:27;;;;;;;2.63;0.60;;;;;;;-142.75;100.00;74938.75;5073324;28;20027;-63
2023/07/27 08:13:52;;;;;;;0.93;0.38;;;;;;;-142.75;100.00;74948.59;5076463;28;20492;-65
2023/07/27 08:16:18;;;;;;;2.60;0.70;;;;;;;-142.75;100.00;74952.53;5075363;28;20063;-64
2023/07/27 08:18:44;;;;;;;2.58;0.30;;;;;;;-142.75;100.00;74936.78;5078940;28;20588;-63
2023/07/27 08:21:10;;;;;;;3.28;0.50;;;;;;;-142.75;100.00;74924.97;5076256;28;20024;-64
2023/07/27 08:23:35;;;;;;;3.40;0.55;;;;;;;-142.75;100.00;74913.19;5077875;28;20381;-64
2023/07/27 08:26:01;;;;;;;0.82;0.50;;;;;;;-142.75;100.00;74919.09;5079208;28;20023;-63
2023/07/27 08:28:27;;;;;;;1.80;0.50;;;;;;;-142.75;100.00;74909.25;5091583;28;20048;-64
2023/07/27 08:30:53;;;;;;;1.42;0.65;;;;;;;-142.75;100.00;74917.13;5090547;28;20024;-64
2023/07/27 08:33:19;;;;;;;1.48;0.82;;;;;;;-142.75;100.00;74893.50;5090720;28;20061;-65
2023/07/27 08:35:45;;;;;;;3.05;0.47;;;;;;;-142.75;100.00;74901.38;5090885;28;20052;-64
2023/07/27 08:38:10;;;;;;;4.70;0.55;;;;;;;-142.75;100.00;74901.38;5081130;28;20023;-64
2023/07/27 08:40:36;;;;;;;2.80;0.43;;;;;;;-142.75;100.00;74891.53;5069903;28;20454;-64
2023/07/27 08:43:07;;;;;;;1.88;0.60;;;;;;;-142.75;100.00;74873.81;5070474;28;20024;-64
2023/07/27 08:45:33;;;;;;;1.65;0.40;;;;;;;-142.75;100.00;74869.88;5070342;28;20070;-64
2023/07/27 08:47:59;;;;;;;3.15;0.60;;;;;;;-142.75;100.00;74864.00;5070211;28;20036;-64
2023/07/27 08:50:25;;;;;;;5.07;0.70;;;;;;;-142.75;100.00;74867.91;5069692;28;20028;-64
2023/07/27 08:52:51;;;;;;;1.50;0.60;;;;;;;-142.75;100.00;74885.63;5069887;28;20031;-64
2023/07/27 08:55:16;;;;;;;1.77;0.50;;;;;;;-142.75;100.00;74869.88;5070283;28;20050;-64
2023/07/27 08:57:42;;;;;;;1.83;0.40;;;;;;;-142.75;100.00;74856.13;5070251;28;20039;-64
2023/07/27 09:00:12;;;;;;;1.85;0.50;;;;;;;-142.75;100.00;74864.00;5070041;28;21951;-64
2023/07/27 09:02:38;;;;;;;10.25;0.77;;;;;;;-142.75;100.00;74864.00;5070620;28;20487;-64
2023/07/27 09:05:05;;;;;;;2.50;0.70;;;;;;;-142.75;100.00;74865.97;5072062;28;20036;-64
2023/07/27 09:07:31;;;;;;;1.85;0.57;;;;;;;-142.75;100.00;74862.03;5074002;28;20058;-64
2023/07/27 09:09:56;;;;;;;1.88;0.30;;;;;;;-142.75;100.00;74850.22;5070462;28;20032;-64
2023/07/27 09:12:23;;;;;;;1.52;0.60;;;;;;;-142.75;100.00;74842.34;5070062;28;20028;-64
2023/07/27 09:14:48;;;;;;;5.20;0.40;;;;;;;-142.75;100.00;74865.97;5069951;28;20397;-64
2023/07/27 09:17:14;;;;;;;1.45;0.30;;;;;;;-142.75;100.00;74850.22;5069601;28;20027;-64
2023/07/27 09:19:43;;;;;;;3.47;1.15;;;;;;;-142.75;100.00;74848.25;5069605;28;20012;-64
2023/07/27 09:22:10;;;;;;;2.67;0.47;;;;;;;-142.75;100.00;74854.16;5078369;28;20526;-64
2023/07/27 09:24:36;;;;;;;3.15;0.40;;;;;;;-142.75;100.00;74854.16;5089906;28;20035;-64
2023/07/27 09:27:08;;;;;;;5.00;0.80;;;;;;;-142.75;100.00;74834.47;5089769;28;20019;-64
2023/07/27 09:29:33;;;;;;;2.35;0.70;;;;;;;-142.75;100.00;74832.50;5083389;28;20020;-64
2023/07/27 09:31:59;;;;;;;6.85;0.70;;;;;;;-142.75;100.00;74814.78;5069372;28;20032;-64
2023/07/27 09:34:29;;;;;;;2.17;0.45;;;;;;;-142.75;100.00;74804.97;5069513;28;20042;-63
2023/07/27 09:37:02;;;;;;;6.50;0.85;;;;;;;-142.75;100.00;74826.59;5069846;28;20028;-64
2023/07/27 09:39:29;;;;;;;2.97;0.77;;;;;;;-142.75;100.00;74834.47;5069411;28;20112;-64
2023/07/27 09:41:55;;;;;;;1.85;0.50;;;;;;;-142.75;100.00;74832.50;5068443;28;20040;-64
2023/07/27 09:44:24;;;;;;;2.22;0.43;;;;;;;-142.75;100.00;74824.63;5069082;28;20100;-64
2023/07/27 09:46:50;;;;;;;1.20;0.63;;;;;;;-142.75;100.00;74814.78;5084077;28;20027;-63
2023/07/27 09:49:16;;;;;;;3.75;0.82;;;;;;;-142.75;100.00;74820.69;5089322;28;20039;-64
2023/07/27 09:51:42;;;;;;;1.35;0.50;;;;;;;-142.75;100.00;74826.59;5089278;28;20023;-64
2023/07/27 09:54:08;;;;;;;1.40;0.55;;;;;;;-142.75;100.00;74834.47;5089628;28;20085;-64
2023/07/27 09:56:34;;;;;;;2.92;0.40;;;;;;;-142.75;100.00;74820.69;5089117;28;20438;-64
2023/07/27 09:59:00;;;;;;;1.38;0.43;;;;;;;-142.75;100.00;74818.72;5089140;28;20038;-64
2023/07/27 10:01:26;;;;;;;3.50;0.52;;;;;;;-142.75;100.00;74820.69;5088741;28;20023;-64
2023/07/27 10:03:57;;;;;;;0.80;0.30;;;;;;;-142.75;100.00;74834.47;5075445;28;20028;-64
2023/07/27 10:06:24;;;;;;;1.25;0.60;;;;;;;-142.75;100.00;74814.78;5087802;28;20039;-64
2023/07/27 10:08:49;;;;;;;1.00;0.50;;;;;;;-142.75;100.00;74806.94;5088824;28;20052;-64
2023/07/27 10:11:15;;;;;;;4.82;0.70;;;;;;;-142.75;100.00;74806.94;5088866;28;20526;-64
2023/07/27 10:13:42;;;;;;;5.18;0.55;;;;;;;-142.75;100.00;74787.25;5089433;28;20073;-64
2023/07/27 10:16:15;;;;;;;2.45;0.40;;;;;;;-142.75;100.00;74783.31;5089265;28;20491;-64
2023/07/27 10:18:45;;;;;;;0.80;0.45;;;;;;;-142.75;100.00;74775.44;5089408;28;20027;-65
2023/07/27 10:21:28;;;;;;;3.08;0.50;;;;;;;-142.75;100.00;74751.84;5089032;28;20027;-64
2023/07/27 10:23:59;;;;;;;1.67;0.40;;;;;;;-142.75;100.00;74755.78;5089220;28;20027;-65
2023/07/27 10:26:40;;;;;;;0.75;0.40;;;;;;;-142.75;100.00;74751.84;5089085;28;20031;-65
2023/07/27 10:29:26;;;;;;;1.20;0.70;;;;;;;-142.75;100.00;74751.84;5071413;28;20696;-65
2023/07/27 10:32:02;;;;;;;4.72;0.60;;;;;;;-142.75;100.00;74740.03;5068380;28;20487;-65
2023/07/27 10:34:29;;;;;;;3.05;0.70;;;;;;;-142.75;100.00;74736.09;5068572;28;20097;-61
2023/07/27 10:36:57;;;;;;;6.05;0.85;;;;;;;-142.75;100.00;74751.84;5068542;28;20099;-65
2023/07/27 10:39:27;;;;;;;0.90;0.40;;;;;;;-142.75;100.00;74740.03;5068544;28;20027;-66
2023/07/27 10:42:05;;;;;;;1.75;0.52;;;;;;;-142.75;100.00;74716.41;5068153;28;20024;-65
2023/07/27 10:44:45;;;;;;;1.42;0.30;;;;;;;-142.75;100.00;74712.47;5068281;28;20035;-65
2023/07/27 10:47:33;;;;;;;0.50;0.30;;;;;;;-142.75;100.00;74710.50;5067873;28;20036;-65
2023/07/27 10:49:59;;;;;;;3.97;0.55;;;;;;;-142.75;100.00;74732.16;5068399;28;20021;-65
2023/07/27 10:52:29;;;;;;;0.80;0.40;;;;;;;-142.75;100.00;74726.25;5068108;28;20499;-65
2023/07/27 10:54:59;;;;;;;1.80;0.60;;;;;;;-142.75;100.00;74771.50;5066490;28;20028;-65
2023/07/27 10:57:27;;;;;;;1.58;0.50;;;;;;;-142.75;100.00;74751.84;5068167;28;20103;-65
2023/07/27 10:59:53;;;;;;;2.25;0.40;;;;;;;-142.75;100.00;74771.50;5068176;28;20043;-66
2023/07/27 11:02:24;;;;;;;2.00;0.50;;;;;;;-142.75;100.00;74755.78;5067770;28;20028;-64
2023/07/27 11:04:51;;;;;;;5.63;1.00;;;;;;;-142.75;100.00;74755.78;5068395;28;20407;-64
2023/07/27 11:07:34;;;;;;;2.67;0.47;;;;;;;-142.75;100.00;74755.78;5068395;28;20513;-63